TimeEET,TemperatureF,Dew PointF,Humidity,Sea Level PressureIn,VisibilityMPH,Wind Direction,Wind SpeedMPH,Gust SpeedMPH,PrecipitationIn,Events,Conditions,WindDirDegrees,DateUTC
12:20 AM,51.8,48.2,88,29.71,6.2,South,9.2,-,N/A,,Scattered Clouds,170,2012-12-09 22:20:00
12:50 AM,51.8,48.2,88,29.71,6.2,SSE,10.4,-,N/A,,Scattered Clouds,160,2012-12-09 22:50:00
1:20 AM,51.8,48.2,88,29.71,6.2,South,11.5,-,N/A,,Scattered Clouds,170,2012-12-09 23:20:00
1:50 AM,51.8,48.2,88,29.68,6.2,WSW,4.6,-,N/A,,Scattered Clouds,240,2012-12-09 23:50:00
2:00 AM,53,49,81,29.70,6,WSW,4.6,,,,Partly Cloudy,240,2012-12-10 00:00:00
2:20 AM,51.8,48.2,88,29.68,6.2,South,5.8,-,N/A,,Scattered Clouds,170,2012-12-10 00:20:00
2:50 AM,51.8,48.2,88,29.65,6.2,SSE,11.5,-,N/A,,Scattered Clouds,160,2012-12-10 00:50:00
3:50 AM,51.8,48.2,88,29.65,6.2,WSW,9.2,-,N/A,,Scattered Clouds,240,2012-12-10 01:50:00
4:20 AM,51.8,48.2,88,29.65,6.2,SW,4.6,-,N/A,,Scattered Clouds,220,2012-12-10 02:20:00
4:50 AM,50.0,48.2,94,29.62,6.2,South,8.1,-,N/A,,Scattered Clouds,170,2012-12-10 02:50:00
5:20 AM,50.0,48.2,94,29.62,6.2,South,8.1,-,N/A,,Scattered Clouds,170,2012-12-10 03:20:00
5:50 AM,50.0,46.4,87,29.62,6.2,SSW,5.8,-,N/A,,Scattered Clouds,200,2012-12-10 03:50:00
6:20 AM,50.0,46.4,87,29.62,6.2,South,6.9,-,N/A,,Scattered Clouds,180,2012-12-10 04:20:00
6:50 AM,50.0,46.4,87,29.62,6.2,SSW,5.8,-,N/A,,Mostly Cloudy,210,2012-12-10 04:50:00
7:20 AM,50.0,46.4,87,29.62,6.2,WSW,5.8,-,N/A,,Mostly Cloudy,240,2012-12-10 05:20:00
7:50 AM,51.8,44.6,76,29.65,6.2,WSW,12.7,-,N/A,,Mostly Cloudy,240,2012-12-10 05:50:00
8:00 AM,52,44,66,29.67,9,WSW,12.7,,,,,240,2012-12-10 06:00:00
8:20 AM,51.8,42.8,71,29.65,6.2,SW,11.5,-,N/A,,Mostly Cloudy,230,2012-12-10 06:20:00
8:50 AM,51.8,41.0,67,29.65,6.2,WSW,12.7,-,N/A,,Mostly Cloudy,240,2012-12-10 06:50:00
9:20 AM,53.6,41.0,62,29.65,6.2,WSW,13.8,-,N/A,,Mostly Cloudy,240,2012-12-10 07:20:00
9:50 AM,55.4,42.8,63,29.65,6.2,WSW,13.8,-,N/A,Rain,Light Rain,250,2012-12-10 07:50:00
10:20 AM,55.4,44.6,67,29.68,6.2,WSW,15.0,-,N/A,Rain,Light Rain,240,2012-12-10 08:20:00
10:50 AM,57.2,46.4,67,29.68,6.2,West,24.2,-,N/A,Rain,Light Rain,280,2012-12-10 08:50:00
11:20 AM,57.2,46.4,67,29.68,6.2,West,20.7,-,N/A,Rain,Light Rain,260,2012-12-10 09:20:00
11:50 AM,53.6,46.4,77,29.68,6.2,West,18.4,-,N/A,Rain,Light Rain,260,2012-12-10 09:50:00
12:20 PM,53.6,46.4,77,29.68,6.2,West,16.1,-,N/A,,Mostly Cloudy,260,2012-12-10 10:20:00
12:50 PM,55.4,44.6,67,29.68,6.2,West,17.3,-,N/A,Rain,Light Rain,260,2012-12-10 10:50:00
1:20 PM,55.4,44.6,67,29.68,6.2,WSW,13.8,-,N/A,,Mostly Cloudy,240,2012-12-10 11:20:00
1:50 PM,55.4,44.6,67,29.68,6.2,SW,13.8,-,N/A,,Mostly Cloudy,230,2012-12-10 11:50:00
2:00 PM,55,45,60,29.71,6,SW,13.8,,,,,230,2012-12-10 12:00:00
2:20 PM,55.4,44.6,67,29.68,6.2,WSW,13.8,-,N/A,,Mostly Cloudy,250,2012-12-10 12:20:00
2:50 PM,59.0,46.4,63,29.71,6.2,WSW,21.9,-,N/A,,Mostly Cloudy,250,2012-12-10 12:50:00
3:20 PM,59.0,46.4,63,29.71,6.2,West,23.0,-,N/A,,Scattered Clouds,280,2012-12-10 13:20:00
3:50 PM,59.0,42.8,55,29.71,6.2,West,23.0,-,N/A,,Scattered Clouds,280,2012-12-10 13:50:00
4:20 PM,59.0,42.8,55,29.71,6.2,West,20.7,-,N/A,,Scattered Clouds,280,2012-12-10 14:20:00
4:50 PM,55.4,46.4,72,29.74,6.2,West,11.5,-,N/A,Rain,Light Rain,260,2012-12-10 14:50:00
5:20 PM,55.4,46.4,72,29.74,6.2,West,17.3,-,N/A,Rain,Light Rain,270,2012-12-10 15:20:00
5:50 PM,53.6,48.2,82,29.74,6.2,West,11.5,-,N/A,,Scattered Clouds,260,2012-12-10 15:50:00
6:20 PM,53.6,48.2,82,29.74,6.2,SW,11.5,-,N/A,,Scattered Clouds,230,2012-12-10 16:20:00
6:50 PM,53.6,44.6,72,29.77,6.2,WSW,11.5,-,N/A,,Mostly Cloudy,240,2012-12-10 16:50:00
7:20 PM,53.6,44.6,72,29.77,6.2,WNW,20.7,-,N/A,,Mostly Cloudy,300,2012-12-10 17:20:00
7:50 PM,55.4,44.6,67,29.80,6.2,WNW,9.2,-,N/A,,Scattered Clouds,300,2012-12-10 17:50:00
8:00 PM,56,44,54,29.81,6,WNW,9.2,,,,,300,2012-12-10 18:00:00
8:20 PM,55.4,44.6,67,29.80,6.2,West,10.4,-,N/A,Rain,Light Rain,270,2012-12-10 18:20:00
8:50 PM,51.8,46.4,82,29.83,6.2,WSW,6.9,-,N/A,,Scattered Clouds,240,2012-12-10 18:50:00
9:20 PM,51.8,46.4,82,29.83,6.2,SW,9.2,-,N/A,,Scattered Clouds,230,2012-12-10 19:20:00
9:50 PM,50.0,46.4,87,29.86,6.2,SW,9.2,-,N/A,,Scattered Clouds,230,2012-12-10 19:50:00
10:20 PM,50.0,46.4,87,29.86,6.2,SW,8.1,-,N/A,,Scattered Clouds,220,2012-12-10 20:20:00
10:50 PM,51.8,44.6,76,29.86,6.2,SW,11.5,-,N/A,,Scattered Clouds,230,2012-12-10 20:50:00
11:20 PM,51.8,44.6,76,29.86,6.2,SW,8.1,-,N/A,,Scattered Clouds,220,2012-12-10 21:20:00
11:50 PM,51.8,44.6,76,29.86,6.2,SW,9.2,-,N/A,,Scattered Clouds,220,2012-12-10 21:50:00